createdAt,value
2019-03-19T00:00:59.460Z,101071.44
2019-03-19T00:03:26.759Z,101072.48
2019-03-19T00:05:54.860Z,101083.23
2019-03-19T00:08:23.013Z,101083.53
2019-03-19T00:10:51.219Z,101078.55
2019-03-19T00:13:19.375Z,101084.22
2019-03-19T00:15:47.472Z,101078.00
2019-03-19T00:18:15.747Z,101089.82
2019-03-19T00:20:43.919Z,101089.30
2019-03-19T00:23:12.183Z,101096.16
2019-03-19T00:25:40.340Z,101099.83
2019-03-19T00:28:08.515Z,101105.65
2019-03-19T00:30:36.715Z,101104.41
2019-03-19T00:33:04.943Z,101108.11
2019-03-19T00:35:33.051Z,101115.86
2019-03-19T00:38:01.237Z,101117.98
2019-03-19T00:40:29.452Z,101121.20
2019-03-19T00:42:58.015Z,101118.89
2019-03-19T00:45:26.156Z,101128.16
2019-03-19T00:47:54.378Z,101118.71
2019-03-19T00:50:22.522Z,101117.08
2019-03-19T00:52:50.750Z,101118.05
2019-03-19T00:55:18.921Z,101129.03
2019-03-19T00:57:47.119Z,101130.66
2019-03-19T01:00:15.486Z,101131.70
2019-03-19T01:02:43.600Z,101132.19
2019-03-19T01:05:11.995Z,101131.53
2019-03-19T01:07:40.222Z,101137.28
2019-03-19T01:10:09.292Z,101137.10
2019-03-19T01:12:37.480Z,101143.08
2019-03-19T01:15:07.009Z,101137.06
2019-03-19T01:17:35.203Z,101130.57
2019-03-19T01:20:03.388Z,101129.21
2019-03-19T01:22:31.595Z,101125.39
2019-03-19T01:24:59.761Z,101124.20
2019-03-19T01:27:27.929Z,101125.59
2019-03-19T01:29:56.119Z,101120.92
2019-03-19T01:32:24.253Z,101129.79
2019-03-19T01:34:52.472Z,101129.94
2019-03-19T01:37:20.666Z,101136.52
2019-03-19T01:39:48.870Z,101137.19
2019-03-19T01:42:17.033Z,101131.84
2019-03-19T01:44:45.220Z,101133.94
2019-03-19T01:47:13.338Z,101128.29
2019-03-19T01:49:41.540Z,101125.91
2019-03-19T01:52:09.669Z,101132.76
2019-03-19T01:54:37.955Z,101133.05
2019-03-19T01:57:06.101Z,101127.84
2019-03-19T01:59:34.244Z,101137.94
2019-03-19T02:02:02.497Z,101140.31
2019-03-19T02:04:30.658Z,101138.37
2019-03-19T02:06:58.830Z,101140.84
2019-03-19T02:09:27.040Z,101149.98
2019-03-19T02:11:55.274Z,101150.02
2019-03-19T02:14:23.496Z,101154.97
2019-03-19T02:16:51.712Z,101154.83
2019-03-19T02:19:19.946Z,101165.53
2019-03-19T02:21:48.110Z,101159.18
2019-03-19T02:24:16.298Z,101164.36
2019-03-19T02:26:44.536Z,101155.47
2019-03-19T02:29:12.748Z,101157.12
2019-03-19T02:31:40.871Z,101161.86
2019-03-19T02:34:09.105Z,101162.98
2019-03-19T02:36:37.307Z,101168.16
2019-03-19T02:39:07.667Z,101174.50
2019-03-19T02:41:35.763Z,101176.98
2019-03-19T02:44:04.038Z,101191.28
2019-03-19T02:46:32.210Z,101184.06
2019-03-19T02:49:00.367Z,101187.91
2019-03-19T02:51:28.626Z,101185.53
2019-03-19T02:53:56.749Z,101188.30
2019-03-19T02:56:32.561Z,101192.20
2019-03-19T02:58:55.081Z,101201.62
2019-03-19T03:01:23.313Z,101209.72
2019-03-19T03:03:51.433Z,101210.01
2019-03-19T03:06:19.642Z,101211.38
2019-03-19T03:08:47.729Z,101208.59
2019-03-19T03:11:16.020Z,101210.91
2019-03-19T03:14:03.215Z,101210.84
2019-03-19T03:16:31.446Z,101216.25
2019-03-19T03:18:59.619Z,101225.84
2019-03-19T03:21:27.783Z,101224.52
2019-03-19T03:23:56.074Z,101225.05
2019-03-19T03:26:24.268Z,101221.94
2019-03-19T03:28:52.417Z,101228.77
2019-03-19T03:31:20.556Z,101224.53
2019-03-19T03:33:49.063Z,101226.05
2019-03-19T03:36:17.310Z,101224.86
2019-03-19T03:38:45.453Z,101227.69
2019-03-19T03:41:13.555Z,101226.81
2019-03-19T03:43:41.734Z,101218.06
2019-03-19T03:46:09.855Z,101220.58
2019-03-19T03:48:38.035Z,101224.66
2019-03-19T03:51:06.197Z,101227.66
2019-03-19T03:53:34.467Z,101227.50
2019-03-19T03:56:02.686Z,101234.36
2019-03-19T03:58:31.138Z,101243.31
2019-03-19T04:00:59.326Z,101244.94
2019-03-19T04:03:27.546Z,101246.92
2019-03-19T04:05:55.691Z,101265.03
2019-03-19T04:08:23.894Z,101274.50
2019-03-19T04:10:52.138Z,101273.87
2019-03-19T04:13:20.331Z,101260.20
2019-03-19T04:15:48.796Z,101260.11
2019-03-19T04:18:17.061Z,101262.94
2019-03-19T04:20:45.218Z,101259.08
2019-03-19T04:23:13.489Z,101261.08
2019-03-19T04:25:41.934Z,101265.91
2019-03-19T04:28:10.228Z,101266.98
2019-03-19T04:30:38.484Z,101272.02
2019-03-19T04:33:06.830Z,101273.81
2019-03-19T04:35:35.089Z,101275.75
2019-03-19T04:38:03.278Z,101278.39
2019-03-19T04:40:31.532Z,101281.03
2019-03-19T04:42:59.677Z,101280.58
2019-03-19T04:45:27.818Z,101282.79
2019-03-19T04:47:56.034Z,101286.02
2019-03-19T04:50:24.147Z,101282.66
2019-03-19T04:52:52.411Z,101288.36
2019-03-19T04:55:20.560Z,101293.63
2019-03-19T04:57:48.728Z,101297.25
2019-03-19T05:00:16.916Z,101294.99
2019-03-19T05:02:45.202Z,101289.39
2019-03-19T05:05:13.869Z,101296.84
2019-03-19T05:07:42.081Z,101303.14
2019-03-19T05:10:11.978Z,101299.69
2019-03-19T05:12:40.205Z,101300.03
2019-03-19T05:15:08.497Z,101299.53
2019-03-19T05:17:36.747Z,101300.90
2019-03-19T05:20:09.277Z,101288.30
2019-03-19T05:22:37.427Z,101291.32
2019-03-19T05:25:06.036Z,101291.47
2019-03-19T05:27:37.613Z,101294.21
2019-03-19T05:30:04.566Z,101297.49
2019-03-19T05:32:32.734Z,101300.74
2019-03-19T05:35:00.923Z,101304.05
2019-03-19T05:37:29.061Z,101308.34
2019-03-19T05:39:57.425Z,101314.75
2019-03-19T05:42:25.644Z,101319.30
2019-03-19T05:44:53.884Z,101325.12
2019-03-19T05:47:22.044Z,101326.12
2019-03-19T05:49:50.268Z,101326.05
2019-03-19T05:52:18.446Z,101325.78
2019-03-19T05:54:46.670Z,101065.38
2019-03-19T05:57:14.830Z,101331.00
2019-03-19T05:59:42.981Z,101330.77
2019-03-19T06:02:11.250Z,101334.00
2019-03-19T06:04:39.394Z,101340.09
2019-03-19T06:07:07.580Z,101349.27
2019-03-19T06:09:35.803Z,101353.05
2019-03-19T06:12:04.172Z,101355.63
2019-03-19T06:14:32.388Z,101363.22
2019-03-19T06:17:00.617Z,101362.16
2019-03-19T06:19:28.915Z,101370.55
2019-03-19T06:21:57.180Z,101373.13
2019-03-19T06:24:25.347Z,101371.88
2019-03-19T06:26:53.532Z,101372.27
2019-03-19T06:29:21.719Z,101371.98
2019-03-19T06:31:49.994Z,101380.43
2019-03-19T06:34:18.311Z,101384.27
2019-03-19T06:36:46.499Z,101386.52
2019-03-19T06:39:14.663Z,101399.58
2019-03-19T06:41:42.907Z,101399.19
2019-03-19T06:44:11.085Z,101401.41
2019-03-19T06:46:39.434Z,101417.20
2019-03-19T06:49:07.627Z,101426.14
2019-03-19T06:51:35.797Z,101426.27
2019-03-19T06:54:04.120Z,101429.19
2019-03-19T06:56:32.389Z,101431.70
2019-03-19T06:59:00.541Z,101443.87
2019-03-19T07:01:28.699Z,101441.87
2019-03-19T07:03:56.969Z,101442.70
2019-03-19T07:06:25.165Z,101449.77
2019-03-19T07:08:53.422Z,101450.39
2019-03-19T07:11:21.690Z,101446.61
2019-03-19T07:13:49.894Z,101451.41
2019-03-19T07:16:18.072Z,101457.00
2019-03-19T07:18:46.240Z,101466.28
2019-03-19T07:21:14.473Z,101465.05
2019-03-19T07:26:17.882Z,101478.99
2019-03-19T07:28:46.142Z,101465.44
2019-03-19T07:31:14.290Z,101460.77
2019-03-19T07:36:18.028Z,101462.72
2019-03-19T07:38:46.477Z,101466.29
2019-03-19T07:41:17.467Z,101471.39
2019-03-19T07:43:44.829Z,101477.59
2019-03-19T07:46:12.983Z,101481.64
2019-03-19T07:48:41.135Z,101488.80
2019-03-19T07:51:09.474Z,101483.50
2019-03-19T07:53:37.975Z,101489.34
2019-03-19T07:56:06.128Z,101488.73
2019-03-19T07:58:44.782Z,101490.69
2019-03-19T08:01:04.293Z,101491.69
2019-03-19T08:03:32.725Z,101492.86
2019-03-19T08:06:00.932Z,101492.86
2019-03-19T08:08:29.125Z,101492.39
2019-03-19T08:10:57.215Z,101496.83
2019-03-19T08:13:25.548Z,101500.01
2019-03-19T08:15:53.853Z,101199.05
2019-03-19T08:18:21.940Z,101509.84
2019-03-19T08:20:50.196Z,101511.73
2019-03-19T08:23:18.578Z,101522.31
2019-03-19T08:25:46.683Z,101522.78
2019-03-19T08:28:14.872Z,101520.31
2019-03-19T08:30:43.102Z,101532.78
2019-03-19T08:33:11.250Z,101538.22
2019-03-19T08:35:39.456Z,101539.02
2019-03-19T08:38:07.584Z,101530.02
2019-03-19T08:40:35.870Z,101522.50
2019-03-19T08:43:04.398Z,101529.55
2019-03-19T08:45:32.533Z,101531.84
2019-03-19T08:48:00.809Z,101533.94
2019-03-19T08:50:29.001Z,101534.33
2019-03-19T08:52:57.205Z,101538.30
2019-03-19T08:55:25.406Z,101541.16
2019-03-19T08:57:53.537Z,101541.84
2019-03-19T09:00:21.721Z,101534.70
2019-03-19T09:02:49.888Z,101540.59
2019-03-19T09:05:18.179Z,101541.00
2019-03-19T09:07:46.346Z,101535.18
2019-03-19T09:10:14.488Z,101541.45
2019-03-19T09:12:42.670Z,101548.63
2019-03-19T09:15:11.565Z,101548.74
2019-03-19T09:17:39.781Z,101549.58
2019-03-19T09:20:10.957Z,101555.97
2019-03-19T09:22:39.768Z,101545.41
2019-03-19T09:25:08.288Z,101555.13
2019-03-19T09:27:36.479Z,101546.72
2019-03-19T09:30:05.084Z,101550.73
2019-03-19T09:32:33.234Z,101558.73
2019-03-19T09:35:01.949Z,101557.86
2019-03-19T09:37:30.165Z,101563.20
2019-03-19T09:39:58.338Z,101563.20
2019-03-19T09:42:26.506Z,101567.19
2019-03-19T09:44:58.639Z,101563.20
2019-03-19T09:47:24.636Z,101564.42
2019-03-19T09:49:52.802Z,101556.53
2019-03-19T09:52:20.906Z,101565.67
2019-03-19T09:54:49.068Z,101563.58
2019-03-19T09:57:17.678Z,101562.71
2019-03-19T09:59:46.096Z,101564.55
2019-03-19T10:02:14.306Z,101565.33
2019-03-19T10:04:42.418Z,101575.22
2019-03-19T10:07:10.576Z,101567.14
2019-03-19T10:09:38.761Z,101574.79
2019-03-19T10:12:06.974Z,101562.67
2019-03-19T10:14:35.210Z,101567.39
2019-03-19T10:17:03.350Z,101560.42
2019-03-19T10:19:31.555Z,101562.30
2019-03-19T10:21:59.729Z,101566.38
2019-03-19T10:24:28.038Z,101564.79
2019-03-19T10:26:56.299Z,101565.11
2019-03-19T10:29:24.479Z,101563.11
2019-03-19T10:31:52.722Z,101571.95
2019-03-19T10:34:20.919Z,101560.78
2019-03-19T10:36:49.101Z,101557.22
2019-03-19T10:39:17.267Z,101569.27
2019-03-19T10:41:45.464Z,101566.09
2019-03-19T10:44:13.677Z,101565.81
2019-03-19T10:46:41.999Z,101561.70
2019-03-19T10:49:10.249Z,101561.80
2019-03-19T10:51:38.487Z,101564.39
2019-03-19T10:54:06.590Z,101557.35
2019-03-19T10:56:34.790Z,101566.84
2019-03-19T10:59:03.090Z,101564.30
2019-03-19T11:01:31.344Z,101568.42
2019-03-19T11:03:59.646Z,101573.44
2019-03-19T11:06:27.844Z,101567.20
2019-03-19T11:08:56.026Z,101570.91
2019-03-19T11:11:24.205Z,101565.55
2019-03-19T11:13:52.376Z,101561.77
2019-03-19T11:16:20.619Z,101566.10
2019-03-19T11:18:48.763Z,101565.68
2019-03-19T11:21:16.965Z,101557.62
2019-03-19T11:23:48.468Z,101573.88
2019-03-19T11:26:16.688Z,101571.91
2019-03-19T11:28:44.883Z,101572.81
2019-03-19T11:31:13.109Z,101577.95
2019-03-19T11:33:41.372Z,101578.64
2019-03-19T11:36:09.524Z,101586.11
2019-03-19T11:38:37.673Z,101585.98
2019-03-19T11:41:07.319Z,101584.36
2019-03-19T11:43:35.703Z,101590.05
2019-03-19T11:46:04.592Z,101593.79
2019-03-19T11:48:32.879Z,101589.34
2019-03-19T11:51:01.063Z,101586.31
2019-03-19T11:53:29.243Z,101590.71
2019-03-19T11:55:57.512Z,101592.24
2019-03-19T11:58:25.802Z,101594.62
2019-03-19T12:00:56.948Z,101592.46
2019-03-19T12:03:25.201Z,101601.85
2019-03-19T12:05:53.382Z,101598.56
2019-03-19T12:08:21.608Z,101605.83
2019-03-19T12:10:49.842Z,101601.34
2019-03-19T12:13:18.168Z,101598.40
2019-03-19T12:15:46.370Z,101605.45
2019-03-19T12:18:14.547Z,101593.87
2019-03-19T12:20:42.738Z,101588.05
2019-03-19T12:23:10.988Z,101597.48
2019-03-19T12:25:39.117Z,101595.92
2019-03-19T12:28:07.484Z,101594.25
2019-03-19T12:30:35.735Z,101613.51
2019-03-19T12:33:03.986Z,101601.06
2019-03-19T12:35:32.198Z,101606.55
2019-03-19T12:38:00.458Z,101603.73
2019-03-19T12:40:36.817Z,101609.75
2019-03-19T12:42:58.629Z,101610.86
2019-03-19T12:45:26.785Z,101604.04
2019-03-19T12:47:55.133Z,101601.77
2019-03-19T12:50:23.335Z,101599.91
2019-03-19T12:52:51.635Z,101601.26
2019-03-19T12:55:19.873Z,101602.27
2019-03-19T12:57:48.029Z,101596.39
2019-03-19T13:00:17.982Z,101602.20
2019-03-19T13:02:46.188Z,101605.92
2019-03-19T13:05:14.303Z,101610.34
2019-03-19T13:07:42.615Z,101603.81
2019-03-19T13:10:12.950Z,101598.95
2019-03-19T13:12:41.222Z,101596.55
2019-03-19T13:15:10.555Z,101602.03
2019-03-19T13:17:38.780Z,101605.63
2019-03-19T13:20:07.866Z,101604.80
2019-03-19T13:22:36.066Z,101601.74
2019-03-19T13:25:04.669Z,101603.91
2019-03-19T13:27:33.028Z,101601.20
2019-03-19T13:30:01.304Z,101598.66
2019-03-19T13:32:29.430Z,101600.28
2019-03-19T13:34:57.681Z,101617.08
2019-03-19T13:37:26.040Z,101610.59
2019-03-19T13:39:54.228Z,101607.11
2019-03-19T13:42:22.390Z,101607.27
2019-03-19T13:44:50.641Z,101606.63
2019-03-19T13:47:19.001Z,101614.55
2019-03-19T13:49:47.343Z,101608.37
2019-03-19T13:52:15.548Z,101610.13
2019-03-19T13:54:43.733Z,101611.41
2019-03-19T13:57:11.901Z,101612.75
2019-03-19T13:59:40.192Z,101608.38
2019-03-19T14:02:08.434Z,101603.09
2019-03-19T14:04:36.640Z,101602.05
2019-03-19T14:07:04.951Z,101615.02
2019-03-19T14:09:33.141Z,101611.95
2019-03-19T14:12:01.482Z,101615.28
2019-03-19T14:14:29.731Z,101621.15
2019-03-19T14:16:57.881Z,101626.49
2019-03-19T14:19:26.072Z,101625.17
2019-03-19T14:21:54.304Z,101619.75
2019-03-19T14:24:22.578Z,101619.25
2019-03-19T14:26:50.867Z,101619.45
2019-03-19T14:29:19.117Z,101621.14
2019-03-19T14:31:47.426Z,101619.86
2019-03-19T14:34:15.631Z,101620.49
2019-03-19T14:36:43.837Z,101617.55
2019-03-19T14:39:12.072Z,101623.31
2019-03-19T14:41:40.365Z,101618.33
2019-03-19T14:44:08.698Z,101620.42
2019-03-19T14:46:36.898Z,101626.41
2019-03-19T14:49:05.323Z,101627.06
2019-03-19T14:51:33.804Z,101629.97
2019-03-19T14:54:02.100Z,101625.83
2019-03-19T14:56:30.592Z,101625.91
2019-03-19T14:58:58.735Z,101613.00
2019-03-19T15:01:27.026Z,101618.64
2019-03-19T15:03:55.214Z,101625.69
2019-03-19T15:06:23.467Z,101619.05
2019-03-19T15:08:51.703Z,101634.72
2019-03-19T15:11:20.078Z,101633.52
2019-03-19T15:13:48.389Z,101631.02
2019-03-19T15:16:16.575Z,101628.73
2019-03-19T15:18:44.797Z,101621.97
2019-03-19T15:21:13.214Z,101627.93
2019-03-19T15:23:42.899Z,101620.93
2019-03-19T15:26:11.401Z,101625.50
2019-03-19T15:28:39.593Z,101623.25
2019-03-19T15:31:07.888Z,101626.61
2019-03-19T15:33:36.005Z,101626.70
2019-03-19T15:36:04.161Z,101620.28
2019-03-19T15:38:32.437Z,101631.09
2019-03-19T15:41:00.777Z,101640.55
2019-03-19T15:43:29.009Z,101638.04
2019-03-19T15:45:57.286Z,101639.02
2019-03-19T15:48:25.886Z,101637.81
2019-03-19T15:50:54.094Z,101643.11
2019-03-19T15:53:22.330Z,101639.80
2019-03-19T15:55:50.613Z,101634.18
2019-03-19T15:58:19.063Z,101639.72
2019-03-19T16:00:47.356Z,101640.81
2019-03-19T16:03:15.622Z,101643.69
2019-03-19T16:05:43.852Z,101643.01
2019-03-19T16:08:12.042Z,101643.73
2019-03-19T16:10:40.308Z,101643.31
2019-03-19T16:13:08.528Z,101642.34
2019-03-19T16:15:36.890Z,101648.72
2019-03-19T16:18:05.159Z,101646.06
2019-03-19T16:20:33.508Z,101650.11
2019-03-19T16:23:01.672Z,101652.26
2019-03-19T16:25:30.010Z,101651.53
2019-03-19T16:27:58.598Z,101651.50
2019-03-19T16:30:26.977Z,101660.69
2019-03-19T16:32:55.679Z,101661.02
2019-03-19T16:35:23.860Z,101659.21
2019-03-19T16:37:52.365Z,101659.94
2019-03-19T16:40:20.647Z,101663.40
2019-03-19T16:42:50.032Z,101666.98
2019-03-19T16:45:18.765Z,101669.89
2019-03-19T16:47:47.585Z,101667.63
2019-03-19T16:50:16.101Z,101665.06
2019-03-19T16:52:44.363Z,101666.29
2019-03-19T16:55:13.559Z,101679.84
2019-03-19T16:57:42.094Z,101685.70
2019-03-19T17:00:13.202Z,101677.59
2019-03-19T17:02:41.471Z,101530.25
2019-03-19T17:05:10.511Z,101689.53
2019-03-19T17:07:38.818Z,101690.80
2019-03-19T17:10:08.997Z,101690.13
2019-03-19T17:12:37.884Z,101701.55
2019-03-19T17:15:07.309Z,101700.73
2019-03-19T17:17:36.148Z,101704.94
2019-03-19T17:20:04.663Z,101708.88
2019-03-19T17:22:33.762Z,101710.38
2019-03-19T17:25:02.640Z,101718.96
2019-03-19T17:27:31.211Z,101720.00
2019-03-19T17:30:00.335Z,101720.64
2019-03-19T17:32:29.424Z,101721.23
2019-03-19T17:34:57.895Z,101722.27
2019-03-19T17:37:26.789Z,101728.34
2019-03-19T17:39:55.464Z,101726.41
2019-03-19T17:42:24.225Z,101725.48
2019-03-19T17:44:52.904Z,101725.02
2019-03-19T17:47:21.947Z,101735.41
2019-03-19T17:49:50.983Z,101732.23
2019-03-19T17:52:19.828Z,101730.94
2019-03-19T17:54:48.834Z,101738.14
2019-03-19T17:57:17.758Z,101740.00
2019-03-19T17:59:47.103Z,101735.66
2019-03-19T18:02:23.526Z,101746.88
2019-03-19T18:04:46.812Z,101749.64
2019-03-19T18:07:15.967Z,101746.59
2019-03-19T18:09:46.759Z,101747.12
2019-03-19T18:12:15.445Z,101744.05
2019-03-19T18:14:44.533Z,101750.33
2019-03-19T18:17:13.099Z,101745.11
2019-03-19T18:19:41.815Z,101746.89
2019-03-19T18:22:10.677Z,101756.47
2019-03-19T18:24:39.345Z,101765.53
2019-03-19T18:27:08.405Z,101762.91
2019-03-19T18:29:37.525Z,101768.69
2019-03-19T18:32:06.330Z,101770.89
2019-03-19T18:34:35.043Z,101769.11
2019-03-19T18:37:03.567Z,101773.08
2019-03-19T18:39:32.271Z,101778.81
2019-03-19T18:42:01.111Z,101782.34
2019-03-19T18:44:29.866Z,101784.02
2019-03-19T18:46:58.870Z,101782.66
2019-03-19T18:49:27.681Z,101783.08
2019-03-19T18:51:56.794Z,101782.98
2019-03-19T18:54:25.230Z,101785.61
2019-03-19T18:56:53.965Z,101787.72
2019-03-19T18:59:23.504Z,101797.23
2019-03-19T19:01:52.507Z,101800.43
2019-03-19T19:04:21.388Z,101807.42
2019-03-19T19:06:50.459Z,101811.61
2019-03-19T19:09:19.751Z,101807.58
2019-03-19T19:11:49.619Z,101807.80
2019-03-19T19:14:18.291Z,101814.27
2019-03-19T19:16:47.001Z,101813.30
2019-03-19T19:19:16.567Z,101819.41
2019-03-19T19:21:46.661Z,101821.62
2019-03-19T19:24:18.508Z,101823.34
2019-03-19T19:26:47.728Z,101819.84
2019-03-19T19:29:17.222Z,101819.54
2019-03-19T19:31:46.315Z,101823.37
2019-03-19T19:34:15.868Z,101832.28
2019-03-19T19:36:45.050Z,101836.67
2019-03-19T19:39:14.131Z,101845.02
2019-03-19T19:41:43.749Z,101845.75
2019-03-19T19:44:13.590Z,101846.00
2019-03-19T19:46:43.169Z,101847.36
2019-03-19T19:49:12.571Z,101851.38
2019-03-19T19:51:42.238Z,101858.24
2019-03-19T19:54:12.013Z,101854.02
2019-03-19T19:56:41.761Z,101861.61
2019-03-19T19:59:10.938Z,101861.39
2019-03-19T20:01:40.749Z,101867.57
2019-03-19T20:04:10.625Z,101869.70
2019-03-19T20:06:40.549Z,101871.65
2019-03-19T20:09:10.410Z,101883.09
2019-03-19T20:11:40.200Z,101879.44
2019-03-19T20:14:09.622Z,101884.69
2019-03-19T20:16:39.096Z,101884.09
2019-03-19T20:19:09.027Z,101884.44
2019-03-19T20:21:38.527Z,101890.01
2019-03-19T20:24:08.460Z,101884.19
2019-03-19T20:26:38.011Z,101885.86
2019-03-19T20:29:07.723Z,101882.20
2019-03-19T20:31:37.479Z,101886.52
2019-03-19T20:34:07.195Z,101884.22
2019-03-19T20:36:36.691Z,101886.73
2019-03-19T20:39:08.277Z,101890.05
2019-03-19T20:41:37.838Z,101892.61
2019-03-19T20:44:07.339Z,101896.92
2019-03-19T20:46:36.805Z,101897.27
2019-03-19T20:49:05.323Z,101902.40
2019-03-19T20:51:34.042Z,101903.17
2019-03-19T20:54:04.813Z,101904.79
2019-03-19T20:56:33.791Z,101904.35
2019-03-19T20:59:02.529Z,101911.34
2019-03-19T21:01:30.898Z,101912.13
2019-03-19T21:03:59.525Z,101915.05
2019-03-19T21:06:28.317Z,101921.61
2019-03-19T21:08:56.870Z,101920.60
2019-03-19T21:11:26.056Z,101921.81
2019-03-19T21:13:54.610Z,101926.10
2019-03-19T21:16:23.706Z,101922.09
2019-03-19T21:18:52.572Z,101925.08
2019-03-19T21:21:21.265Z,101929.34
2019-03-19T21:23:49.535Z,101938.48
2019-03-19T21:26:18.018Z,101939.76
2019-03-19T21:28:46.402Z,101944.47
2019-03-19T21:31:15.283Z,101939.52
2019-03-19T21:33:51.292Z,101939.71
2019-03-19T21:36:13.887Z,101944.56
2019-03-19T21:38:42.045Z,101944.44
2019-03-19T21:41:10.304Z,101950.04
2019-03-19T21:43:38.836Z,101950.55
2019-03-19T21:46:07.101Z,101954.63
2019-03-19T21:48:35.364Z,101956.67
2019-03-19T21:51:03.579Z,101959.27
2019-03-19T21:53:31.921Z,101958.16
2019-03-19T21:56:00.361Z,101968.13
2019-03-19T21:58:28.603Z,101965.76
2019-03-19T22:00:57.239Z,101970.09
2019-03-19T22:03:25.513Z,101961.75
2019-03-19T22:05:53.881Z,101966.22
2019-03-19T22:08:22.145Z,101969.11
2019-03-19T22:10:50.343Z,101968.30
2019-03-19T22:13:18.544Z,101969.86
2019-03-19T22:15:46.792Z,101963.80
2019-03-19T22:18:15.116Z,101963.80
2019-03-19T22:20:43.364Z,101962.34
2019-03-19T22:23:12.016Z,101972.44
2019-03-19T22:25:40.382Z,101970.06
2019-03-19T22:28:08.702Z,101970.20
2019-03-19T22:30:37.275Z,101971.88
2019-03-19T22:33:05.544Z,101967.19
2019-03-19T22:35:33.950Z,101961.28
2019-03-19T22:38:02.719Z,101964.78
2019-03-19T22:40:30.960Z,101971.73
2019-03-19T22:42:59.215Z,101966.98
2019-03-19T22:45:27.506Z,101964.38
2019-03-19T22:47:55.702Z,101960.02
2019-03-19T22:50:23.855Z,101963.26
2019-03-19T22:52:52.198Z,101963.26
2019-03-19T22:55:28.582Z,101960.77
2019-03-19T22:57:50.303Z,101959.65
2019-03-19T23:00:40.725Z,101967.33
2019-03-19T23:03:09.495Z,101959.02
2019-03-19T23:05:37.711Z,101972.03
2019-03-19T23:08:05.967Z,101977.75
2019-03-19T23:10:34.489Z,101980.22
2019-03-19T23:13:02.702Z,101985.06
2019-03-19T23:15:31.005Z,101978.61
2019-03-19T23:17:59.218Z,101975.97
2019-03-19T23:20:27.387Z,101974.56
2019-03-19T23:22:55.614Z,101974.45
2019-03-19T23:25:23.907Z,101975.20
2019-03-19T23:27:52.116Z,101974.30
2019-03-19T23:30:20.376Z,101977.24
2019-03-19T23:32:48.499Z,101980.03
2019-03-19T23:35:16.662Z,101977.09
2019-03-19T23:37:44.883Z,101968.39
2019-03-19T23:40:13.124Z,101971.33
2019-03-19T23:42:41.264Z,101971.95
2019-03-19T23:45:09.771Z,101976.08
2019-03-19T23:47:38.000Z,101970.88
2019-03-19T23:50:07.980Z,101977.15
2019-03-19T23:52:36.186Z,101972.49
2019-03-19T23:55:04.438Z,101966.55
2019-03-19T23:57:32.605Z,101970.99
